Time;durP1;ratioP1;P1;durP2;ratioP2;P2;SDS_P1;SDS_P2;PMS_P1;PMS_P2;Temp;Humidity;BMP_temperature;BMP_pressure;BME280_temperature;BME280_humidity;BME280_pressure;Samples;Min_cycle;Max_cycle;Signal;HPM_P1;HPM_P2
2021/05/17 00:00:09;;;;;;;9.23;5.45;;;;;;;9.91;76.81;98817.44;5092839;28;20051;-66
2021/05/17 00:02:37;;;;;;;7.05;4.32;;;;;;;9.81;76.28;98817.09;5084975;28;20399;-66
2021/05/17 00:05:07;;;;;;;6.70;4.18;;;;;;;9.86;75.98;98817.66;5093092;28;20399;-66
2021/05/17 00:07:35;;;;;;;7.47;4.65;;;;;;;9.85;75.51;98823.56;5084623;28;20055;-66
2021/05/17 00:10:04;;;;;;;4.85;4.07;;;;;;;9.81;75.78;98817.09;5094656;28;20054;-66
2021/05/17 00:12:32;;;;;;;5.77;4.50;;;;;;;9.81;75.56;98817.09;5089902;28;20052;-66
2021/05/17 00:14:59;;;;;;;6.53;4.60;;;;;;;9.86;75.90;98814.06;5092571;28;20052;-66
2021/05/17 00:17:27;;;;;;;9.10;4.40;;;;;;;9.87;75.89;98819.28;5083791;28;20056;-66
2021/05/17 00:19:55;;;;;;;7.28;4.40;;;;;;;9.92;77.00;98809.88;5092299;28;20059;-66
2021/05/17 00:22:22;;;;;;;6.97;4.15;;;;;;;9.99;76.70;98817.63;5084143;28;20063;-66
2021/05/17 00:24:50;;;;;;;5.13;3.80;;;;;;;10.04;77.00;98817.41;5089415;28;20055;-66
2021/05/17 00:27:18;;;;;;;5.65;4.07;;;;;;;10.08;76.61;98816.34;5082380;28;20064;-66
2021/05/17 00:29:45;;;;;;;6.15;4.45;;;;;;;10.11;76.39;98815.63;5092063;28;20489;-66
2021/05/17 00:32:14;;;;;;;6.80;4.05;;;;;;;10.12;76.65;98814.47;5084082;28;20071;-66
2021/05/17 00:34:41;;;;;;;5.40;4.13;;;;;;;10.14;76.18;98814.09;5092711;28;20055;-66
2021/05/17 00:37:08;;;;;;;6.22;4.20;;;;;;;10.14;75.85;98814.09;5087845;28;20061;-66
2021/05/17 00:39:35;;;;;;;6.70;4.15;;;;;;;10.16;76.43;98812.63;5094631;28;20056;-66
2021/05/17 00:42:02;;;;;;;8.32;3.90;;;;;;;10.16;76.63;98818.19;5096225;28;20058;-66
2021/05/17 00:44:31;;;;;;;7.35;4.32;;;;;;;10.21;76.21;98822.69;5095951;28;20056;-66
2021/05/17 00:46:59;;;;;;;6.75;4.13;;;;;;;10.21;76.13;98813.53;5095883;28;20063;-66
2021/05/17 00:49:27;;;;;;;5.75;3.38;;;;;;;10.21;76.09;98810.75;5096188;28;20044;-66
2021/05/17 00:51:54;;;;;;;6.30;3.38;;;;;;;10.20;76.00;98817.47;5095348;28;20056;-66
2021/05/17 00:54:21;;;;;;;6.45;3.47;;;;;;;10.18;75.85;98820.59;5093385;28;20060;-66
2021/05/17 00:56:48;;;;;;;6.95;3.50;;;;;;;10.19;75.83;98813.88;5095731;28;20066;-66
2021/05/17 00:59:15;;;;;;;7.35;3.47;;;;;;;10.24;76.19;98812.81;5095577;28;20052;-66
2021/05/17 01:01:45;;;;;;;5.20;3.28;;;;;;;10.28;76.33;98814.53;5091966;28;20358;-66
2021/05/17 01:04:12;;;;;;;4.20;2.85;;;;;;;10.29;76.07;98821.75;5091964;28;20489;-66
2021/05/17 01:06:41;;;;;;;5.35;3.08;;;;;;;10.36;76.15;98812.81;5091720;28;20079;-66
2021/05/17 01:09:09;;;;;;;5.30;3.45;;;;;;;10.41;76.42;98814.53;5090035;28;20044;-66
2021/05/17 01:11:37;;;;;;;4.50;2.80;;;;;;;10.47;76.37;98819.47;5086516;28;20071;-65
2021/05/17 01:14:08;;;;;;;4.68;3.00;;;;;;;10.53;76.33;98826.41;5095898;28;20055;-65
2021/05/17 01:16:36;;;;;;;4.00;2.90;;;;;;;10.56;76.01;98825.72;5095365;28;20056;-65
2021/05/17 01:19:05;;;;;;;4.25;2.78;;;;;;;10.60;75.43;98819.41;5095243;28;20055;-65
2021/05/17 01:21:37;;;;;;;3.83;2.50;;;;;;;10.63;75.31;98825.09;5092667;28;20060;-65
2021/05/17 01:24:06;;;;;;;6.00;2.53;;;;;;;10.67;75.29;98819.63;5089919;28;20488;-65
2021/05/17 01:26:34;;;;;;;3.38;2.30;;;;;;;10.68;74.74;98826.81;5092417;28;20066;-65
2021/05/17 01:29:04;;;;;;;4.07;2.42;;;;;;;10.72;75.31;98822.16;5090488;28;20055;-65
2021/05/17 01:31:31;;;;;;;4.15;2.38;;;;;;;10.76;75.08;98823.06;5092023;28;20497;-65
2021/05/17 01:33:59;;;;;;;7.15;3.05;;;;;;;10.80;75.22;98826.75;5089717;28;20488;-65
2021/05/17 01:36:26;;;;;;;3.53;2.38;;;;;;;10.86;75.15;98830.91;5093308;28;20097;-65
2021/05/17 01:38:54;;;;;;;3.55;2.10;;;;;;;10.90;74.95;98822.66;5088726;28;20044;-65
2021/05/17 01:41:24;;;;;;;2.95;2.10;;;;;;;10.91;74.80;98827.84;5094731;28;20409;-65
2021/05/17 01:43:54;;;;;;;4.25;2.20;;;;;;;10.91;74.70;98830.63;5093159;28;20059;-65
2021/05/17 01:46:24;;;;;;;3.47;2.35;;;;;;;10.92;74.24;98825.88;5091173;28;20418;-65
2021/05/17 01:48:55;;;;;;;3.17;2.15;;;;;;;10.95;74.38;98827.94;5088253;28;20047;-65
2021/05/17 01:51:22;;;;;;;4.15;2.08;;;;;;;10.96;74.51;98835.94;5093671;28;20489;-65
2021/05/17 01:53:52;;;;;;;12.68;2.38;;;;;;;11.00;74.37;98832.44;5087624;28;20059;-65
2021/05/17 01:56:21;;;;;;;4.68;2.50;;;;;;;11.02;74.63;98833.69;5093737;28;20048;-65
2021/05/17 01:58:51;;;;;;;4.47;2.50;;;;;;;11.03;74.53;98835.31;5094904;28;20048;-65
2021/05/17 02:01:19;;;;;;;5.57;1.80;;;;;;;11.09;73.75;98839.47;5093350;28;20413;-65
2021/05/17 02:03:47;;;;;;;4.20;2.58;;;;;;;11.11;73.82;98839.91;5094192;28;20063;-65
2021/05/17 02:06:17;;;;;;;3.08;2.08;;;;;;;11.16;73.95;98841.63;5094476;28;20077;-65
2021/05/17 02:08:46;;;;;;;2.75;1.95;;;;;;;11.19;73.96;98838.09;5087954;28;20052;-65
2021/05/17 02:11:15;;;;;;;2.58;2.15;;;;;;;11.23;73.83;98841.00;5110714;28;20055;-65
2021/05/17 02:13:43;;;;;;;4.15;1.73;;;;;;;11.27;73.29;98841.91;5114401;28;20059;-64
2021/05/17 02:16:13;;;;;;;5.07;2.50;;;;;;;11.28;73.61;98844.34;5102167;28;20143;-64
2021/05/17 02:18:41;;;;;;;3.90;1.95;;;;;;;11.32;73.35;98834.09;5094505;28;20067;-64
2021/05/17 02:21:10;;;;;;;3.85;2.40;;;;;;;11.34;73.35;98840.13;5093859;28;20473;-64
2021/05/17 02:23:37;;;;;;;3.75;2.47;;;;;;;11.29;73.89;98840.38;5085399;28;20432;-64
2021/05/17 02:26:04;;;;;;;4.15;2.45;;;;;;;11.29;73.28;98840.38;5087524;28;20385;-64
2021/05/17 02:28:31;;;;;;;2.78;2.22;;;;;;;11.24;73.18;98840.66;5085891;28;20485;-64
2021/05/17 02:30:58;;;;;;;3.28;2.45;;;;;;;11.21;73.61;98846.91;5094266;28;20062;-65
2021/05/17 02:33:26;;;;;;;5.13;2.83;;;;;;;11.16;74.24;98842.44;5094188;28;20403;-66
2021/05/17 02:35:53;;;;;;;3.58;2.72;;;;;;;11.12;74.80;98857.44;5093782;28;20051;-65
2021/05/17 02:38:20;;;;;;;7.00;3.10;;;;;;;11.08;74.64;98851.78;5093959;28;20351;-65
2021/05/17 02:40:50;;;;;;;4.60;2.72;;;;;;;11.09;74.68;98849.81;5094566;28;20052;-65
2021/05/17 02:43:21;;;;;;;;;;;;;;;11.03;74.34;98848.44;5084939;28;20489;-65
2021/05/17 02:45:48;;;;;;;5.88;3.30;;;;;;;11.04;74.96;98844.50;5093743;28;19920;-65
2021/05/17 02:48:16;;;;;;;6.90;3.45;;;;;;;11.05;75.13;98849.72;5085436;28;20048;-65
2021/05/17 02:50:47;;;;;;;7.63;3.10;;;;;;;11.08;74.67;98854.56;5092634;28;20059;-65
2021/05/17 02:54:05;;;;;;;8.10;4.28;;;;;;;11.09;74.74;98850.63;5085656;28;20080;-65
2021/05/17 02:56:36;;;;;;;13.60;3.70;;;;;;;11.11;75.35;98862.22;5093376;28;20068;-65
2021/05/17 02:59:04;;;;;;;22.55;4.22;;;;;;;11.00;76.80;98855.53;5092303;28;20409;-65
2021/05/17 03:01:37;;;;;;;6.18;3.95;;;;;;;10.87;76.87;98854.78;5093139;28;20055;-65
2021/05/17 03:04:12;;;;;;;9.40;4.30;;;;;;;10.84;77.19;98854.72;5093902;28;20063;-65
2021/05/17 03:06:41;;;;;;;6.70;4.90;;;;;;;10.78;77.47;98856.94;5093353;28;20059;-65
2021/05/17 03:09:10;;;;;;;8.60;4.95;;;;;;;10.85;77.44;98854.34;5091657;28;20048;-65
2021/05/17 03:11:42;;;;;;;7.75;5.28;;;;;;;10.87;77.19;98851.19;5096979;28;20047;-65
2021/05/17 03:14:10;;;;;;;9.43;5.13;;;;;;;10.94;76.78;98851.38;5113861;28;20044;-65
2021/05/17 03:16:42;;;;;;;6.95;4.80;;;;;;;10.96;76.03;98846.25;5093398;28;20049;-65
2021/05/17 03:19:12;;;;;;;9.45;5.22;;;;;;;10.97;76.15;98845.91;5088870;28;20048;-65
2021/05/17 03:21:43;;;;;;;7.60;4.95;;;;;;;10.94;75.94;98851.38;5089139;28;20060;-65
2021/05/17 03:24:14;;;;;;;7.68;5.07;;;;;;;10.94;76.36;98843.84;5080920;28;20481;-65
2021/05/17 03:26:42;;;;;;;7.78;5.38;;;;;;;11.00;75.88;98841.59;5081526;28;20052;-65
2021/05/17 03:29:09;;;;;;;7.53;5.25;;;;;;;11.08;75.73;98842.59;5089073;28;20064;-65
2021/05/17 03:31:36;;;;;;;7.75;5.38;;;;;;;11.11;75.79;98848.28;5081120;28;20055;-65
2021/05/17 03:34:03;;;;;;;8.35;5.70;;;;;;;11.17;76.24;98854.38;5088192;28;20404;-65
2021/05/17 03:36:30;;;;;;;10.18;6.80;;;;;;;11.21;76.50;98848.91;5089974;28;20055;-64
2021/05/17 03:38:57;;;;;;;7.65;6.00;;;;;;;11.26;76.25;98860.59;5087236;28;20083;-64
2021/05/17 03:41:24;;;;;;;8.43;6.40;;;;;;;11.27;75.78;98864.19;5081693;28;20397;-64
2021/05/17 03:43:52;;;;;;;8.40;5.97;;;;;;;11.30;75.71;98871.84;5078715;28;20057;-64
2021/05/17 03:46:18;;;;;;;8.43;6.07;;;;;;;11.32;75.22;98866.72;5072881;28;20049;-64
2021/05/17 03:48:45;;;;;;;7.75;4.55;;;;;;;11.33;74.49;98863.56;5072324;28;20053;-64
2021/05/17 03:51:12;;;;;;;7.55;4.93;;;;;;;11.31;74.82;98863.13;5072393;28;20074;-64
2021/05/17 03:53:40;;;;;;;6.35;4.40;;;;;;;11.30;74.83;98864.28;5065076;28;20060;-65
2021/05/17 03:56:07;;;;;;;5.47;3.80;;;;;;;11.32;74.09;98867.53;5073344;28;20048;-65
2021/05/17 03:58:35;;;;;;;5.03;3.28;;;;;;;11.35;73.62;98866.00;5079185;28;20040;-64
2021/05/17 04:01:03;;;;;;;4.72;3.47;;;;;;;11.34;73.56;98872.75;5093087;28;20058;-64
2021/05/17 04:03:31;;;;;;;5.70;4.28;;;;;;;11.30;74.04;98869.88;5084014;28;20052;-64
2021/05/17 04:06:09;;;;;;;6.28;3.90;;;;;;;11.26;75.21;98877.34;5092854;28;20064;-64
2021/05/17 04:14:06;;;;;;;5.75;4.18;;;;;;;11.18;75.99;98879.09;5117741;28;20058;-65
2021/05/17 04:16:34;;;;;;;6.60;4.43;;;;;;;11.31;75.34;98885.41;5116402;28;20047;-65
2021/05/17 04:19:04;;;;;;;9.13;4.68;;;;;;;11.35;75.04;98880.75;5096088;28;20093;-65
2021/05/17 04:21:30;;;;;;;;;;;;;;;11.37;74.48;98875.63;5096362;28;20424;-65
2021/05/17 04:23:57;;;;;;;5.93;4.50;;;;;;;11.32;74.37;98878.69;5090245;28;19921;-65
2021/05/17 04:26:24;;;;;;;6.78;5.10;;;;;;;11.35;74.39;98877.94;5092482;28;20052;-65
2021/05/17 04:28:51;;;;;;;6.15;5.15;;;;;;;11.36;74.35;98879.59;5090130;28;20052;-65
2021/05/17 04:31:20;;;;;;;6.28;5.05;;;;;;;11.38;74.23;98884.78;5095071;28;20503;-65
2021/05/17 04:33:50;;;;;;;7.30;5.32;;;;;;;11.48;73.93;98886.25;5089244;28;20047;-65
2021/05/17 04:36:17;;;;;;;7.70;5.60;;;;;;;11.54;74.05;98887.59;5095068;28;20052;-65
2021/05/17 04:38:44;;;;;;;9.57;6.65;;;;;;;11.62;74.93;98892.19;5088661;28;20063;-65
2021/05/17 04:41:11;;;;;;;8.80;6.22;;;;;;;11.70;74.25;98893.97;5095770;28;20052;-65
2021/05/17 04:43:38;;;;;;;8.93;6.05;;;;;;;11.72;74.02;98879.69;5088152;28;20056;-65
2021/05/17 04:46:05;;;;;;;9.43;6.43;;;;;;;11.86;74.62;98885.56;5096198;28;20063;-65
2021/05/17 04:48:32;;;;;;;7.78;6.15;;;;;;;11.96;73.96;98887.84;5095967;28;20060;-65
2021/05/17 04:51:00;;;;;;;7.70;5.43;;;;;;;12.05;73.18;98896.00;5096180;28;20063;-65
2021/05/17 04:53:27;;;;;;;6.53;5.20;;;;;;;12.10;72.38;98895.75;5093269;28;20409;-65
2021/05/17 04:55:54;;;;;;;6.07;5.43;;;;;;;12.16;72.77;98888.72;5092794;28;20048;-65
2021/05/17 04:58:21;;;;;;;7.15;5.32;;;;;;;12.18;72.87;98893.94;5095441;28;20051;-65
2021/05/17 05:00:48;;;;;;;4.40;4.00;;;;;;;12.22;71.76;98896.78;5095809;28;20044;-65
2021/05/17 05:03:14;;;;;;;7.30;4.82;;;;;;;12.21;72.07;98893.19;5095576;28;20059;-64
2021/05/17 05:05:41;;;;;;;6.63;4.88;;;;;;;12.36;72.62;98897.13;5095555;28;20056;-64
2021/05/17 05:08:09;;;;;;;5.82;4.40;;;;;;;12.51;72.46;98898.22;5095795;28;20059;-64
2021/05/17 05:10:36;;;;;;;5.15;3.78;;;;;;;12.66;71.14;98899.34;5105701;28;20050;-64
2021/05/17 05:13:06;;;;;;;5.75;4.03;;;;;;;12.78;70.28;98897.22;5087361;28;20049;-64
2021/05/17 05:15:33;;;;;;;4.72;3.72;;;;;;;12.80;70.35;98894.06;5091336;28;20063;-65
2021/05/17 05:18:00;;;;;;;4.40;3.20;;;;;;;12.86;69.33;98895.38;5086983;28;20052;-64
2021/05/17 05:20:27;;;;;;;4.30;3.28;;;;;;;12.99;69.18;98896.81;5093824;28;20044;-64
2021/05/17 05:23:01;;;;;;;4.45;3.25;;;;;;;13.14;69.18;98891.53;5086191;28;20056;-64
2021/05/17 05:25:39;;;;;;;5.65;3.40;;;;;;;13.06;68.77;98892.56;5094474;28;20094;-64
2021/05/17 05:28:05;;;;;;;5.35;3.28;;;;;;;13.00;69.15;98898.47;5095600;28;20066;-65
2021/05/17 05:30:43;;;;;;;4.22;3.25;;;;;;;12.93;69.66;98892.72;5095313;28;20048;-65
2021/05/17 05:33:15;;;;;;;4.38;2.92;;;;;;;12.87;68.88;98896.19;5090645;28;20055;-65
2021/05/17 05:35:43;;;;;;;6.60;3.63;;;;;;;12.90;69.76;98896.25;5084236;28;20052;-65
2021/05/17 05:38:10;;;;;;;4.82;3.00;;;;;;;12.91;69.62;98908.25;5085762;28;20074;-64
2021/05/17 05:40:38;;;;;;;4.13;2.65;;;;;;;12.94;68.84;98911.13;5089963;28;20056;-65
2021/05/17 05:43:05;;;;;;;5.65;2.80;;;;;;;12.95;69.15;98901.53;5086733;28;20056;-64
2021/05/17 05:45:34;;;;;;;4.03;2.55;;;;;;;13.03;69.28;98901.69;5097225;28;20051;-64
2021/05/17 05:48:01;;;;;;;4.05;2.95;;;;;;;13.24;68.63;98907.69;5081947;28;20055;-64
2021/05/17 05:50:28;;;;;;;4.88;2.60;;;;;;;13.40;67.71;98904.84;5094765;28;20048;-64
2021/05/17 05:52:54;;;;;;;3.33;2.60;;;;;;;13.58;67.96;98900.34;5094998;28;20444;-64
2021/05/17 05:55:21;;;;;;;4.28;2.67;;;;;;;13.85;66.85;98905.19;5088267;28;20056;-64
2021/05/17 05:57:49;;;;;;;5.32;2.67;;;;;;;14.02;66.75;98907.44;5092110;28;20067;-64
2021/05/17 06:00:17;;;;;;;4.95;2.88;;;;;;;14.16;65.97;98906.88;5086335;28;20053;-64
2021/05/17 06:02:45;;;;;;;3.22;2.38;;;;;;;14.04;65.30;98915.47;5085968;28;20131;-65
2021/05/17 06:05:13;;;;;;;4.07;2.42;;;;;;;13.87;65.74;98908.41;5085123;28;20043;-65
2021/05/17 06:07:40;;;;;;;6.00;2.47;;;;;;;13.80;66.79;98912.72;5094291;28;20399;-65
2021/05/17 06:10:09;;;;;;;3.97;2.30;;;;;;;13.79;67.05;98904.69;5094498;28;20052;-65
2021/05/17 06:12:38;;;;;;;3.88;2.50;;;;;;;13.84;66.81;98914.75;5095262;28;20055;-65
2021/05/17 06:15:07;;;;;;;5.97;2.60;;;;;;;13.89;66.70;98906.84;5085133;28;20059;-64
2021/05/17 06:17:35;;;;;;;2.40;1.90;;;;;;;13.99;65.15;98916.63;5085415;28;20051;-64
2021/05/17 06:20:03;;;;;;;3.40;2.33;;;;;;;14.07;65.00;98920.31;5093794;28;20508;-64
2021/05/17 06:22:30;;;;;;;3.25;1.70;;;;;;;14.10;63.88;98920.38;5086462;28;20056;-64
2021/05/17 06:24:58;;;;;;;4.13;1.85;;;;;;;14.26;63.51;98922.19;5086132;28;20052;-64
2021/05/17 06:27:25;;;;;;;3.55;1.80;;;;;;;14.65;63.20;98920.00;5086956;28;20071;-64
2021/05/17 06:29:55;;;;;;;3.20;1.90;;;;;;;15.06;61.12;98916.50;5094322;28;20048;-64
2021/05/17 06:32:24;;;;;;;3.90;1.63;;;;;;;15.27;59.66;98918.75;5085067;28;20048;-64
2021/05/17 06:34:52;;;;;;;2.67;1.70;;;;;;;15.38;59.88;98928.88;5088952;28;20059;-65
2021/05/17 06:37:21;;;;;;;4.13;1.85;;;;;;;15.36;61.14;98913.63;5073864;28;20059;-65
2021/05/17 06:39:48;;;;;;;3.40;1.70;;;;;;;15.28;60.85;98923.16;5094154;28;20055;-65
2021/05/17 06:42:18;;;;;;;3.15;1.52;;;;;;;15.01;60.80;98923.25;5094542;28;20059;-65
2021/05/17 06:44:46;;;;;;;3.22;1.80;;;;;;;14.89;61.68;98917.88;5094099;28;20075;-65
2021/05/17 06:47:13;;;;;;;7.18;1.92;;;;;;;14.93;61.39;98930.78;5094023;28;20439;-65
2021/05/17 06:49:41;;;;;;;2.15;1.70;;;;;;;14.93;61.30;98939.19;5089989;28;20397;-64
2021/05/17 06:52:12;;;;;;;3.42;2.20;;;;;;;15.09;62.57;98927.75;5081394;28;20078;-64
2021/05/17 06:54:41;;;;;;;4.30;1.83;;;;;;;15.36;60.73;98928.44;5082129;28;20055;-64
2021/05/17 06:57:14;;;;;;;3.22;1.80;;;;;;;15.48;59.44;98927.38;5083370;28;20052;-64
2021/05/17 06:59:44;;;;;;;3.53;1.90;;;;;;;15.52;58.68;98924.63;5089151;28;20083;-65
2021/05/17 07:02:18;;;;;;;4.18;1.70;;;;;;;15.75;59.42;98925.25;5084909;28;20079;-65
2021/05/17 07:04:46;;;;;;;5.82;2.13;;;;;;;16.20;58.76;98928.03;5082785;28;20048;-65
2021/05/17 07:07:17;;;;;;;3.15;1.70;;;;;;;16.30;56.23;98934.91;5087767;28;20059;-65
2021/05/17 07:12:29;;;;;;;4.38;1.70;;;;;;;16.51;54.61;98937.06;5081586;28;20075;-65
2021/05/17 07:14:59;;;;;;;5.97;1.80;;;;;;;16.58;55.78;98934.28;5091916;28;20052;-66
2021/05/17 07:17:26;;;;;;;3.88;1.80;;;;;;;16.66;54.56;98943.56;5077528;28;20056;-66
2021/05/17 07:19:55;;;;;;;6.05;1.63;;;;;;;16.71;53.72;98932.75;5088530;28;20071;-66
2021/05/17 07:25:08;;;;;;;3.45;1.42;;;;;;;16.87;54.85;98929.66;5087397;28;20066;-67
2021/05/17 07:27:38;;;;;;;3.25;1.40;;;;;;;16.93;53.56;98936.50;5103947;28;20341;-67
2021/05/17 07:30:06;;;;;;;;;;;;;;;16.95;53.29;98942.53;5100068;28;20057;-67
2021/05/17 07:32:33;;;;;;;4.10;1.45;;;;;;;17.08;52.23;98942.19;5077818;28;19927;-66
2021/05/17 07:35:02;;;;;;;3.90;1.58;;;;;;;17.01;52.88;98937.34;5102896;28;20058;-66
2021/05/17 07:37:28;;;;;;;4.15;1.50;;;;;;;16.93;52.29;98939.31;5081864;28;20501;-66
2021/05/17 07:39:55;;;;;;;4.22;2.05;;;;;;;17.55;51.36;98935.47;5092878;28;20051;-66
2021/05/17 07:42:22;;;;;;;2.58;1.50;;;;;;;18.38;49.02;98939.16;5076072;28;20044;-66
2021/05/17 07:44:49;;;;;;;5.45;1.40;;;;;;;18.14;49.68;98938.00;5094187;28;20048;-66
2021/05/17 07:47:16;;;;;;;4.60;1.90;;;;;;;18.13;48.29;98938.38;5086828;28;20068;-66
2021/05/17 07:49:45;;;;;;;3.78;1.90;;;;;;;18.32;48.11;98942.78;5083099;28;20056;-66
2021/05/17 07:52:15;;;;;;;5.22;1.65;;;;;;;18.59;47.43;98943.16;5072216;28;20048;-66
2021/05/17 07:54:42;;;;;;;3.35;1.60;;;;;;;18.41;48.73;98940.34;5085974;28;20048;-66
2021/05/17 07:57:10;;;;;;;4.68;1.83;;;;;;;18.31;47.77;98949.63;5083103;28;20049;-66
2021/05/17 07:59:37;;;;;;;2.42;1.60;;;;;;;18.97;47.10;98952.75;5071837;28;20057;-66
2021/05/17 08:02:04;;;;;;;3.85;1.58;;;;;;;19.23;46.26;98942.97;5085995;28;20056;-66
2021/05/17 08:04:31;;;;;;;3.65;1.65;;;;;;;19.69;45.51;98943.91;5089665;28;20069;-66
2021/05/17 08:06:58;;;;;;;3.95;1.55;;;;;;;19.27;44.94;98954.22;5083973;28;20059;-66
2021/05/17 08:09:26;;;;;;;2.03;1.33;;;;;;;19.32;44.53;98947.34;5083386;28;20051;-66
2021/05/17 08:11:55;;;;;;;3.53;1.40;;;;;;;19.60;44.74;98940.75;5089538;28;20051;-66
2021/05/17 08:14:22;;;;;;;;;;;;;;;19.19;45.16;98941.34;5093498;28;20059;-66
2021/05/17 08:16:49;;;;;;;3.20;1.20;;;;;;;18.69;45.62;98983.81;5093725;28;19920;-66
2021/05/17 08:19:16;;;;;;;4.45;1.20;;;;;;;18.61;47.16;98954.84;5090262;28;20044;-66
2021/05/17 08:21:43;;;;;;;3.05;1.40;;;;;;;18.52;47.49;98958.09;5084303;28;20049;-66
2021/05/17 08:24:10;;;;;;;3.85;1.20;;;;;;;18.19;47.49;98959.31;5075853;28;20048;-66
2021/05/17 08:26:40;;;;;;;1.88;1.00;;;;;;;17.94;47.15;98954.47;5078827;28;20070;-65
2021/05/17 08:29:07;;;;;;;2.75;1.20;;;;;;;17.92;48.10;98954.06;5084516;28;20048;-65
2021/05/17 08:31:35;;;;;;;2.30;1.25;;;;;;;18.03;47.91;98959.72;5099869;28;20051;-65
2021/05/17 08:34:02;;;;;;;3.58;1.42;;;;;;;18.80;45.86;98950.78;5107290;28;20051;-65
2021/05/17 08:36:28;;;;;;;2.35;1.70;;;;;;;20.74;41.85;98941.03;5097767;28;20513;-65
2021/05/17 08:38:55;;;;;;;3.42;1.10;;;;;;;20.61;40.76;98946.41;5074076;28;20048;-66
2021/05/17 08:41:22;;;;;;;3.75;1.30;;;;;;;20.44;41.11;98945.34;5088493;28;20044;-66
2021/05/17 08:43:50;;;;;;;2.42;1.38;;;;;;;20.00;41.80;98947.75;5087744;28;20044;-66
2021/05/17 08:46:17;;;;;;;3.72;1.60;;;;;;;19.46;42.89;98948.09;5102361;28;20489;-65
2021/05/17 08:48:47;;;;;;;2.88;1.50;;;;;;;19.38;43.43;98940.88;5093309;28;20495;-65
2021/05/17 08:51:16;;;;;;;3.42;1.73;;;;;;;19.71;43.36;98949.97;5100866;28;20044;-67
2021/05/17 08:53:45;;;;;;;3.08;1.70;;;;;;;19.70;42.50;98961.63;5091878;28;20405;-66
2021/05/17 08:56:12;;;;;;;3.88;1.58;;;;;;;20.99;39.83;98946.41;5099258;28;20072;-66
2021/05/17 08:58:38;;;;;;;4.53;2.40;;;;;;;21.58;38.14;98948.09;5082529;28;20589;-67
2021/05/17 09:01:06;;;;;;;4.38;1.83;;;;;;;24.17;33.87;98941.88;5083010;28;20531;-67
2021/05/17 09:03:34;;;;;;;3.95;1.85;;;;;;;25.99;30.17;98935.09;5087246;28;20048;-67
2021/05/17 09:06:07;;;;;;;2.50;1.48;;;;;;;26.15;29.00;98937.03;5105149;28;20052;-67
2021/05/17 09:08:41;;;;;;;3.90;2.13;;;;;;;27.46;27.97;98932.75;5086563;28;20059;-67
2021/05/17 09:11:08;;;;;;;2.38;1.55;;;;;;;27.21;28.08;98938.63;5102717;28;20456;-67
2021/05/17 09:13:37;;;;;;;4.78;1.83;;;;;;;27.57;27.28;98932.34;5084597;28;20048;-67
2021/05/17 09:16:04;;;;;;;3.33;1.50;;;;;;;26.93;27.07;98938.41;5093668;28;20059;-67
2021/05/17 09:18:32;;;;;;;2.63;1.40;;;;;;;27.14;26.46;98934.75;5084063;28;20379;-67
2021/05/17 09:21:02;;;;;;;3.08;1.98;;;;;;;29.08;24.16;98923.97;5109404;28;20043;-67
2021/05/17 09:23:31;;;;;;;1.70;0.85;;;;;;;27.88;26.56;98931.56;5079345;28;20060;-67
2021/05/17 09:26:11;;;;;;;2.35;1.00;;;;;;;27.48;26.45;98926.59;5112451;28;20480;-67
2021/05/17 09:28:40;;;;;;;1.85;1.00;;;;;;;26.75;27.23;98921.13;5077056;28;20386;-67
2021/05/17 09:31:09;;;;;;;3.10;0.93;;;;;;;25.78;28.32;98918.66;5112008;28;20055;-67
2021/05/17 09:33:45;;;;;;;3.13;1.08;;;;;;;23.67;32.05;98929.63;5082813;28;20079;-67
2021/05/17 09:36:36;;;;;;;3.28;1.10;;;;;;;22.37;34.85;98922.13;5104211;28;20044;-67
2021/05/17 09:39:05;;;;;;;4.82;0.95;;;;;;;21.67;36.50;98926.50;5070688;28;20517;-67
2021/05/17 09:41:40;;;;;;;3.10;1.10;;;;;;;20.91;38.12;98923.03;5080913;28;20060;-67
2021/05/17 09:44:08;;;;;;;3.08;0.90;;;;;;;20.33;39.48;98931.31;5076742;28;20382;-67
2021/05/17 09:47:02;;;;;;;2.25;0.80;;;;;;;20.14;40.13;98935.53;5086009;28;20544;-67
2021/05/17 09:49:35;;;;;;;2.67;1.52;;;;;;;21.58;37.76;98928.25;5083400;28;20063;-67
2021/05/17 09:52:15;;;;;;;3.40;2.10;;;;;;;22.49;36.13;98932.84;5091655;28;20063;-67
2021/05/17 09:55:09;;;;;;;2.30;0.93;;;;;;;22.70;34.04;98937.34;5092788;28;20366;-67
2021/05/17 09:57:38;;;;;;;2.17;1.10;;;;;;;22.27;35.26;98932.41;5085324;28;20060;-67
2021/05/17 10:00:10;;;;;;;3.70;1.10;;;;;;;21.71;36.17;98943.44;5099990;28;20048;-67
2021/05/17 10:02:40;;;;;;;3.75;1.23;;;;;;;21.28;37.09;98941.19;5085129;28;20060;-67
2021/05/17 10:05:15;;;;;;;1.77;0.90;;;;;;;20.97;35.53;98943.97;5107326;28;20062;-67
2021/05/17 10:07:45;;;;;;;3.92;1.85;;;;;;;24.60;29.54;98957.06;5105494;28;20063;-67
2021/05/17 10:10:13;;;;;;;2.80;1.23;;;;;;;26.04;27.93;98943.09;5101131;28;20059;-68
2021/05/17 10:12:40;;;;;;;2.17;1.30;;;;;;;28.67;23.68;98943.41;5084100;28;20060;-67
2021/05/17 10:15:10;;;;;;;6.78;1.42;;;;;;;29.30;22.60;98928.75;5091387;28;20048;-68
2021/05/17 10:17:45;;;;;;;2.50;1.30;;;;;;;30.04;21.11;98934.25;5093204;28;20602;-67
2021/05/17 10:20:17;;;;;;;1.67;1.20;;;;;;;31.23;19.76;98924.00;5089365;28;20056;-68
2021/05/17 10:22:44;;;;;;;2.47;1.50;;;;;;;32.12;18.29;98935.47;5088659;28;20072;-68
2021/05/17 10:25:13;;;;;;;4.63;1.80;;;;;;;33.26;17.62;98926.97;5084293;28;20052;-68
2021/05/17 10:27:45;;;;;;;1.58;1.40;;;;;;;32.97;17.42;98928.75;5075042;28;20140;-69
2021/05/17 10:30:14;;;;;;;2.30;1.40;;;;;;;32.43;18.08;98930.41;5100975;28;20055;-68
2021/05/17 10:32:46;;;;;;;3.03;0.90;;;;;;;32.39;18.16;98944.22;5095803;28;20052;-67
2021/05/17 10:35:17;;;;;;;2.28;0.80;;;;;;;29.45;21.61;98932.53;5088942;28;20052;-68
2021/05/17 10:37:46;;;;;;;1.75;1.02;;;;;;;30.51;20.66;98915.47;5074417;28;20048;-68
2021/05/17 10:40:31;;;;;;;1.83;1.50;;;;;;;32.04;19.05;98916.22;5104357;28;20514;-68
2021/05/17 10:43:08;;;;;;;2.70;1.05;;;;;;;30.68;20.53;98922.38;5089611;28;20056;-68
2021/05/17 10:48:26;;;;;;;1.75;1.10;;;;;;;34.24;16.29;98902.06;5090320;28;20050;-69
2021/05/17 10:51:15;;;;;;;3.35;1.38;;;;;;;30.95;19.83;98906.19;5083071;28;20070;-68
2021/05/17 10:53:42;;;;;;;;;;;;;;;30.87;19.67;98902.09;5073573;28;20063;-68
2021/05/17 10:56:10;;;;;;;2.05;1.08;;;;;;;30.44;21.17;98896.53;5082076;28;19927;-69
2021/05/17 11:01:55;;;;;;;2.00;1.85;;;;;;;30.39;20.50;98896.41;5029677;28;20500;-68
2021/05/17 11:04:35;;;;;;;2.85;0.88;;;;;;;32.68;18.50;98898.00;5085065;28;20047;-69
2021/05/17 11:07:18;;;;;;;2.10;0.85;;;;;;;30.74;20.18;98905.22;5091015;28;20048;-69
2021/05/17 11:09:54;;;;;;;2.90;0.90;;;;;;;29.64;21.68;98895.94;5094404;28;20073;-69
2021/05/17 11:12:57;;;;;;;2.83;0.98;;;;;;;29.58;21.60;98915.09;5090441;28;20054;-67
2021/05/17 11:15:27;;;;;;;2.80;1.30;;;;;;;31.48;19.54;98921.84;5083586;28;20055;-68
2021/05/17 11:18:02;;;;;;;2.63;1.23;;;;;;;31.30;19.38;98911.28;5089572;28;20059;-69
2021/05/17 11:20:49;;;;;;;1.75;1.00;;;;;;;30.43;20.64;98914.25;5092009;28;20174;-68
2021/05/17 11:23:19;;;;;;;2.15;1.10;;;;;;;28.20;23.26;98920.84;5089076;28;20056;-68
2021/05/17 11:25:50;;;;;;;1.70;0.70;;;;;;;26.15;25.46;98919.91;5086698;28;20062;-68
2021/05/17 11:28:19;;;;;;;2.63;0.90;;;;;;;25.26;27.58;98924.31;5081875;28;20067;-68
2021/05/17 11:30:49;;;;;;;4.03;1.17;;;;;;;24.16;29.20;98931.72;5094162;28;20048;-68
2021/05/17 11:33:18;;;;;;;2.50;0.90;;;;;;;23.35;30.90;98944.56;5090948;28;20059;-68
2021/05/17 11:36:14;;;;;;;2.63;1.15;;;;;;;22.43;38.43;98971.47;5095360;28;20052;-68
2021/05/17 11:39:09;;;;;;;2.42;0.88;;;;;;;20.38;42.83;98972.47;5090752;28;20054;-69
2021/05/17 11:41:37;;;;;;;2.40;0.90;;;;;;;19.00;53.06;98977.34;5090081;28;20055;-68
2021/05/17 11:44:06;;;;;;;3.65;1.13;;;;;;;18.55;55.24;98985.47;5084765;28;20041;-69
2021/05/17 11:46:33;;;;;;;2.05;1.00;;;;;;;18.03;54.87;98982.25;5077964;28;20059;-69
2021/05/17 11:49:00;;;;;;;3.97;1.20;;;;;;;17.71;56.27;98999.09;5083962;28;20063;-69
2021/05/17 11:51:29;;;;;;;5.38;1.10;;;;;;;17.51;55.80;98996.59;5086853;28;20053;-69
2021/05/17 11:53:56;;;;;;;3.42;1.23;;;;;;;17.08;57.37;99001.28;5080256;28;20052;-69
2021/05/17 11:56:34;;;;;;;10.82;1.63;;;;;;;16.71;57.81;99008.66;5082695;28;20055;-68
2021/05/17 11:59:10;;;;;;;2.90;1.30;;;;;;;16.54;58.79;99006.53;5086832;28;20479;-68
2021/05/17 12:01:40;;;;;;;2.88;1.30;;;;;;;16.27;59.73;99009.53;5089840;28;20052;-68